createdAt,value
2023-10-03T00:00:37.818Z,81.46
2023-10-03T00:03:04.924Z,81.19
2023-10-03T00:05:31.799Z,82.19
2023-10-03T00:08:01.110Z,81.35
2023-10-03T00:10:28.159Z,81.37
2023-10-03T00:12:55.230Z,81.25
2023-10-03T00:15:24.344Z,81.46
2023-10-03T00:17:51.463Z,81.28
2023-10-03T00:20:18.550Z,82.67
2023-10-03T00:22:47.800Z,83.50
2023-10-03T00:25:15.796Z,83.21
2023-10-03T00:27:42.138Z,82.93
2023-10-03T00:30:08.976Z,82.22
2023-10-03T00:32:35.450Z,82.64
2023-10-03T00:35:01.841Z,81.68
2023-10-03T00:37:28.284Z,81.86
2023-10-03T00:39:54.614Z,81.57
2023-10-03T00:42:20.950Z,81.67
2023-10-03T00:44:47.347Z,81.67
2023-10-03T00:47:13.792Z,82.53
2023-10-03T00:49:40.552Z,82.31
2023-10-03T00:52:06.981Z,82.32
2023-10-03T00:54:33.314Z,82.36
2023-10-03T00:56:59.741Z,82.49
2023-10-03T00:59:26.084Z,82.43
2023-10-03T01:01:52.427Z,82.28
2023-10-03T01:04:18.933Z,82.49
2023-10-03T01:06:45.381Z,82.68
2023-10-03T01:09:11.813Z,82.68
2023-10-03T01:11:38.284Z,83.04
2023-10-03T01:14:04.663Z,83.93
2023-10-03T01:16:31.220Z,83.18
2023-10-03T01:18:58.340Z,83.47
2023-10-03T01:21:24.662Z,83.60
2023-10-03T01:23:51.022Z,85.45
2023-10-03T01:26:17.523Z,84.60
2023-10-03T01:28:43.855Z,86.60
2023-10-03T01:31:10.346Z,85.08
2023-10-03T01:33:36.905Z,85.19
2023-10-03T01:36:03.662Z,85.99
2023-10-03T01:38:30.137Z,84.90
2023-10-03T01:40:58.273Z,84.74
2023-10-03T01:43:25.403Z,85.06
2023-10-03T01:45:51.809Z,85.07
2023-10-03T01:48:18.444Z,85.14
2023-10-03T01:50:44.996Z,87.39
2023-10-03T01:53:12.127Z,86.10
2023-10-03T01:55:39.125Z,85.89
2023-10-03T01:58:06.049Z,86.01
2023-10-03T02:00:32.704Z,86.47
2023-10-03T02:03:00.951Z,86.71
2023-10-03T02:05:27.466Z,85.74
2023-10-03T02:07:55.112Z,85.65
2023-10-03T02:10:21.872Z,85.63
2023-10-03T02:12:48.332Z,85.41
2023-10-03T02:15:14.695Z,85.94
2023-10-03T02:17:41.278Z,85.24
2023-10-03T02:20:08.307Z,85.39
2023-10-03T02:22:34.647Z,85.26
2023-10-03T02:25:02.643Z,85.02
2023-10-03T02:27:29.027Z,85.36
2023-10-03T02:29:55.380Z,85.24
2023-10-03T02:32:21.853Z,85.17
2023-10-03T02:34:48.264Z,84.99
2023-10-03T02:37:14.620Z,84.77
2023-10-03T02:39:41.072Z,85.00
2023-10-03T02:42:07.489Z,85.04
2023-10-03T02:44:33.854Z,85.15
2023-10-03T02:47:00.283Z,85.13
2023-10-03T02:49:26.593Z,85.05
2023-10-03T02:51:52.933Z,85.23
2023-10-03T02:54:19.363Z,85.28
2023-10-03T02:56:45.751Z,85.26
2023-10-03T02:59:12.155Z,85.41
2023-10-03T03:01:38.594Z,85.56
2023-10-03T03:04:05.295Z,85.63
2023-10-03T03:06:31.853Z,86.14
2023-10-03T03:08:58.289Z,86.26
2023-10-03T03:11:24.890Z,86.35
2023-10-03T03:13:51.265Z,86.35
2023-10-03T03:16:17.654Z,86.11
2023-10-03T03:18:45.127Z,86.23
2023-10-03T03:21:16.914Z,86.08
2023-10-03T03:23:45.482Z,86.44
2023-10-03T03:26:12.664Z,86.83
2023-10-03T03:28:43.123Z,86.92
2023-10-03T03:31:09.742Z,86.64
2023-10-03T03:33:36.256Z,87.25
2023-10-03T03:36:02.876Z,87.34
2023-10-03T03:38:29.243Z,87.27
2023-10-03T03:40:59.855Z,87.33
2023-10-03T03:43:26.340Z,87.53
2023-10-03T03:45:52.940Z,87.60
2023-10-03T03:48:19.609Z,87.00
2023-10-03T03:50:46.176Z,86.97
2023-10-03T03:53:12.541Z,87.49
2023-10-03T03:55:39.047Z,88.57
2023-10-03T03:58:05.969Z,88.03
2023-10-03T04:00:32.297Z,87.59
2023-10-03T04:03:01.767Z,87.77
2023-10-03T04:05:28.412Z,87.57
2023-10-03T04:07:54.738Z,87.14
2023-10-03T04:10:21.193Z,87.19
2023-10-03T04:12:47.554Z,87.09
2023-10-03T04:15:14.226Z,86.95
2023-10-03T04:17:41.430Z,86.67
2023-10-03T04:20:11.747Z,86.73
2023-10-03T04:22:38.277Z,87.08
2023-10-03T04:25:05.230Z,87.93
2023-10-03T04:27:31.574Z,87.76
2023-10-03T04:29:57.949Z,89.14
2023-10-03T04:32:24.423Z,88.21
2023-10-03T04:34:50.834Z,88.17
2023-10-03T04:37:17.320Z,88.20
2023-10-03T04:39:43.778Z,88.38
2023-10-03T04:42:10.262Z,87.73
2023-10-03T04:44:36.821Z,87.62
2023-10-03T04:47:04.756Z,87.71
2023-10-03T04:49:31.318Z,87.70
2023-10-03T04:51:57.710Z,88.53
2023-10-03T04:54:24.042Z,87.62
2023-10-03T04:56:50.476Z,87.29
2023-10-03T04:59:16.943Z,87.56
2023-10-03T05:01:43.449Z,87.36
2023-10-03T05:04:09.965Z,87.50
2023-10-03T05:06:36.547Z,87.80
2023-10-03T05:09:03.271Z,87.97
2023-10-03T05:11:29.752Z,87.61
2023-10-03T05:13:56.226Z,88.29
2023-10-03T05:16:22.601Z,88.63
2023-10-03T05:18:48.993Z,88.40
2023-10-03T05:21:15.453Z,88.72
2023-10-03T05:23:41.817Z,88.25
2023-10-03T05:26:08.164Z,88.67
2023-10-03T05:28:37.429Z,88.47
2023-10-03T05:31:04.162Z,88.43
2023-10-03T05:33:30.592Z,88.25
2023-10-03T05:35:57.194Z,88.43
2023-10-03T05:38:23.728Z,87.86
2023-10-03T05:40:50.104Z,88.00
2023-10-03T05:43:18.734Z,87.89
2023-10-03T05:45:45.545Z,88.33
2023-10-03T05:48:12.092Z,87.56
2023-10-03T05:50:38.588Z,87.56
2023-10-03T05:53:05.056Z,87.51
2023-10-03T05:55:31.398Z,87.32
2023-10-03T05:57:57.788Z,87.18
2023-10-03T06:00:24.568Z,87.14
2023-10-03T06:02:51.149Z,87.18
2023-10-03T06:05:17.701Z,86.92
2023-10-03T06:07:45.496Z,87.27
2023-10-03T06:10:12.336Z,87.60
2023-10-03T06:12:38.998Z,87.52
2023-10-03T06:15:06.271Z,87.33
2023-10-03T06:17:33.419Z,87.22
2023-10-03T06:19:59.874Z,87.18
2023-10-03T06:22:26.243Z,86.71
2023-10-03T06:24:52.656Z,86.37
2023-10-03T06:27:18.979Z,86.75
2023-10-03T06:29:45.416Z,86.25
2023-10-03T06:32:11.827Z,85.97
2023-10-03T06:34:38.193Z,86.04
2023-10-03T06:37:04.563Z,85.78
2023-10-03T06:39:31.105Z,85.72
2023-10-03T06:41:57.589Z,85.39
2023-10-03T06:44:24.242Z,85.73
2023-10-03T06:46:50.878Z,85.50
2023-10-03T06:49:17.279Z,86.08
2023-10-03T06:51:46.302Z,86.60
2023-10-03T06:54:12.649Z,86.48
2023-10-03T06:56:39.127Z,86.63
2023-10-03T06:59:05.646Z,86.66
2023-10-03T07:01:31.989Z,86.88
2023-10-03T07:03:58.429Z,86.81
2023-10-03T07:06:25.342Z,86.04
2023-10-03T07:08:52.013Z,85.45
2023-10-03T07:11:18.480Z,85.17
2023-10-03T07:13:44.974Z,84.28
2023-10-03T07:16:11.540Z,84.08
2023-10-03T07:18:39.097Z,84.28
2023-10-03T07:21:05.586Z,84.19
2023-10-03T07:23:32.358Z,83.76
2023-10-03T07:25:58.756Z,84.10
2023-10-03T07:28:25.187Z,84.11
2023-10-03T07:30:51.777Z,83.88
2023-10-03T07:33:18.303Z,83.62
2023-10-03T07:35:44.772Z,83.37
2023-10-03T07:38:11.635Z,82.46
2023-10-03T07:40:41.861Z,82.49
2023-10-03T07:43:09.171Z,82.23
2023-10-03T07:45:35.443Z,80.68
2023-10-03T07:48:01.976Z,80.57
2023-10-03T07:50:28.401Z,79.61
2023-10-03T07:52:55.212Z,79.77
2023-10-03T07:55:21.732Z,79.40
2023-10-03T07:57:48.149Z,78.98
2023-10-03T08:00:14.829Z,78.48
2023-10-03T08:02:41.372Z,78.07
2023-10-03T08:05:08.425Z,77.09
2023-10-03T08:07:34.808Z,76.61
2023-10-03T08:10:01.256Z,75.69
2023-10-03T08:12:27.611Z,74.65
2023-10-03T08:14:54.297Z,74.34
2023-10-03T08:17:21.091Z,73.19
2023-10-03T08:19:50.307Z,71.43
2023-10-03T08:22:16.926Z,72.01
2023-10-03T08:24:43.266Z,71.40
2023-10-03T08:27:09.632Z,71.82
2023-10-03T08:29:36.099Z,71.63
2023-10-03T08:32:02.489Z,70.71
2023-10-03T08:34:30.728Z,68.96
2023-10-03T08:36:58.612Z,68.62
2023-10-03T08:39:25.305Z,67.26
2023-10-03T08:42:07.069Z,66.90
2023-10-03T08:44:37.346Z,66.29
2023-10-03T08:47:07.838Z,66.35
2023-10-03T08:49:38.993Z,66.06
2023-10-03T08:52:08.777Z,65.71
2023-10-03T08:54:37.824Z,65.98
2023-10-03T08:57:05.422Z,64.86
2023-10-03T08:59:32.762Z,64.68
2023-10-03T09:02:08.040Z,64.53
2023-10-03T09:04:35.147Z,63.36
2023-10-03T09:07:01.530Z,62.74
2023-10-03T09:09:28.598Z,62.08
2023-10-03T09:12:00.507Z,59.63
2023-10-03T09:14:26.890Z,60.54
2023-10-03T09:16:53.395Z,59.70
2023-10-03T09:19:20.262Z,59.75
2023-10-03T09:21:46.712Z,57.77
2023-10-03T09:24:13.188Z,57.49
2023-10-03T09:26:44.769Z,56.55
2023-10-03T09:29:11.187Z,57.05
2023-10-03T09:31:37.651Z,57.31
2023-10-03T09:34:04.163Z,57.46
2023-10-03T09:36:31.383Z,55.80
2023-10-03T09:38:57.814Z,55.92
2023-10-03T09:41:25.364Z,55.66
2023-10-03T09:43:53.354Z,52.24
2023-10-03T09:46:20.019Z,52.83
2023-10-03T09:48:46.455Z,52.52
2023-10-03T09:51:13.303Z,51.81
2023-10-03T09:53:41.179Z,50.42
2023-10-03T09:56:07.816Z,50.70
2023-10-03T09:58:34.414Z,49.71
2023-10-03T10:01:01.296Z,49.06
2023-10-03T10:03:31.925Z,48.86
2023-10-03T10:06:04.570Z,48.45
2023-10-03T10:09:12.597Z,47.13
2023-10-03T10:12:12.284Z,46.75
2023-10-03T10:15:00.828Z,46.40
2023-10-03T10:17:47.648Z,46.15
2023-10-03T10:20:17.875Z,46.67
2023-10-03T10:22:59.241Z,45.83
2023-10-03T10:25:29.269Z,45.91
2023-10-03T10:28:07.603Z,45.54
2023-10-03T10:30:54.739Z,46.79
2023-10-03T10:33:24.847Z,45.49
2023-10-03T10:36:01.180Z,45.45
2023-10-03T10:38:33.658Z,45.92
2023-10-03T10:41:12.290Z,46.05
2023-10-03T10:44:13.671Z,45.85
2023-10-03T10:46:43.737Z,45.24
2023-10-03T10:49:32.656Z,45.80
2023-10-03T10:51:59.526Z,45.05
2023-10-03T10:54:25.787Z,45.05
2023-10-03T10:57:06.107Z,45.95
2023-10-03T10:59:34.198Z,45.30
2023-10-03T11:02:00.783Z,45.54
2023-10-03T11:04:28.695Z,45.53
2023-10-03T11:06:55.236Z,46.21
2023-10-03T11:09:22.516Z,46.04
2023-10-03T11:11:48.887Z,46.95
2023-10-03T11:14:31.133Z,46.21
2023-10-03T11:16:57.860Z,46.88
2023-10-03T11:19:24.440Z,45.78
2023-10-03T11:21:51.302Z,45.42
2023-10-03T11:24:18.590Z,45.27
2023-10-03T11:26:47.075Z,45.58
2023-10-03T11:29:14.100Z,46.34
2023-10-03T11:31:40.632Z,46.19
2023-10-03T11:34:07.818Z,46.31
2023-10-03T11:36:44.944Z,44.08
2023-10-03T11:39:12.638Z,44.49
2023-10-03T11:41:39.167Z,44.03
2023-10-03T11:44:16.983Z,44.56
2023-10-03T11:46:43.384Z,42.33
2023-10-03T11:49:09.831Z,41.52
2023-10-03T11:51:36.568Z,41.31
2023-10-03T11:54:02.967Z,41.55
2023-10-03T11:56:29.433Z,42.68
2023-10-03T11:58:55.906Z,41.72
2023-10-03T12:01:22.330Z,40.94
2023-10-03T12:03:48.970Z,40.09
2023-10-03T12:06:15.354Z,40.65
2023-10-03T12:08:41.715Z,41.93
2023-10-03T12:11:08.281Z,41.38
2023-10-03T12:13:34.612Z,40.48
2023-10-03T12:16:00.974Z,41.16
2023-10-03T12:18:27.602Z,40.92
2023-10-03T12:20:54.939Z,41.12
2023-10-03T12:23:21.375Z,40.94
2023-10-03T12:25:47.721Z,40.91
2023-10-03T12:28:14.132Z,41.49
2023-10-03T12:30:40.578Z,41.58
2023-10-03T12:33:07.034Z,41.34
2023-10-03T12:35:33.569Z,41.46
2023-10-03T12:38:00.214Z,41.90
2023-10-03T12:40:26.610Z,42.43
2023-10-03T12:42:53.177Z,43.99
2023-10-03T12:45:21.267Z,44.16
2023-10-03T12:47:50.287Z,43.36
2023-10-03T12:50:20.889Z,43.76
2023-10-03T12:52:47.321Z,43.82
2023-10-03T12:55:13.721Z,43.46
2023-10-03T12:57:40.143Z,43.87
2023-10-03T13:00:07.335Z,43.92
2023-10-03T13:02:34.295Z,44.09
2023-10-03T13:05:00.838Z,44.61
2023-10-03T13:07:27.231Z,44.55
2023-10-03T13:09:53.626Z,44.54
2023-10-03T13:12:20.090Z,45.52
2023-10-03T13:14:46.468Z,45.50
2023-10-03T13:17:12.797Z,45.68
2023-10-03T13:19:39.167Z,44.80
2023-10-03T13:22:05.691Z,44.58
2023-10-03T13:24:32.146Z,44.83
2023-10-03T13:26:58.590Z,44.75
2023-10-03T13:29:25.130Z,44.77
2023-10-03T13:31:51.516Z,44.83
2023-10-03T13:34:17.977Z,45.19
2023-10-03T13:36:44.468Z,45.35
2023-10-03T13:39:11.176Z,44.92
2023-10-03T13:41:37.798Z,45.27
2023-10-03T13:44:04.793Z,45.12
2023-10-03T13:46:34.497Z,45.35
2023-10-03T13:49:01.073Z,45.57
2023-10-03T13:51:28.011Z,45.69
2023-10-03T13:53:54.396Z,46.21
2023-10-03T13:56:20.796Z,46.18
2023-10-03T13:58:47.123Z,45.47
2023-10-03T14:01:14.116Z,45.71
2023-10-03T14:03:41.856Z,45.75
2023-10-03T14:06:10.681Z,46.47
2023-10-03T14:08:37.254Z,46.30
2023-10-03T14:11:03.645Z,46.51
2023-10-03T14:13:30.006Z,46.88
2023-10-03T14:15:56.419Z,46.79
2023-10-03T14:18:22.891Z,47.59
2023-10-03T14:20:49.317Z,48.10
2023-10-03T14:23:15.839Z,47.85
2023-10-03T14:25:42.286Z,48.40
2023-10-03T14:28:08.880Z,48.50
2023-10-03T14:30:35.369Z,48.51
2023-10-03T14:33:01.814Z,48.78
2023-10-03T14:35:28.331Z,49.34
2023-10-03T14:37:54.774Z,49.51
2023-10-03T14:40:21.307Z,49.46
2023-10-03T14:42:47.714Z,49.75
2023-10-03T14:45:14.456Z,50.49
2023-10-03T14:47:41.205Z,50.67
2023-10-03T14:50:08.375Z,50.12
2023-10-03T14:52:35.438Z,50.55
2023-10-03T14:55:02.064Z,50.42
2023-10-03T14:57:28.456Z,50.34
2023-10-03T14:59:54.808Z,50.07
2023-10-03T15:02:21.303Z,50.44
2023-10-03T15:04:47.679Z,50.26
2023-10-03T15:07:17.200Z,50.66
2023-10-03T15:09:44.050Z,50.80
2023-10-03T15:12:10.360Z,50.92
2023-10-03T15:14:36.720Z,51.15
2023-10-03T15:17:03.077Z,51.29
2023-10-03T15:19:29.765Z,51.65
2023-10-03T15:21:57.315Z,51.62
2023-10-03T15:24:23.831Z,52.12
2023-10-03T15:26:50.215Z,52.32
2023-10-03T15:29:17.041Z,52.26
2023-10-03T15:31:43.632Z,52.46
2023-10-03T15:34:10.052Z,52.37
2023-10-03T15:36:36.423Z,52.35
2023-10-03T15:39:06.728Z,52.65
2023-10-03T15:41:33.100Z,52.48
2023-10-03T15:43:59.456Z,53.01
2023-10-03T15:46:26.046Z,53.15
2023-10-03T15:48:52.436Z,52.63
2023-10-03T15:51:18.844Z,52.55
2023-10-03T15:53:46.953Z,51.05
2023-10-03T15:56:15.244Z,51.07
2023-10-03T15:58:41.996Z,51.03
2023-10-03T16:01:13.223Z,50.60
2023-10-03T16:03:39.756Z,50.72
2023-10-03T16:06:06.385Z,50.02
2023-10-03T16:08:32.932Z,50.41
2023-10-03T16:10:59.300Z,50.00
2023-10-03T16:13:25.655Z,50.42
2023-10-03T16:15:52.150Z,50.47
2023-10-03T16:18:18.757Z,50.47
2023-10-03T16:20:45.420Z,50.68
2023-10-03T16:23:11.976Z,51.24
2023-10-03T16:25:38.549Z,50.84
2023-10-03T16:28:05.979Z,50.69
2023-10-03T16:30:33.287Z,50.81
2023-10-03T16:33:00.310Z,50.88
2023-10-03T16:35:26.763Z,50.96
2023-10-03T16:37:53.236Z,51.42
2023-10-03T16:40:21.204Z,52.59
2023-10-03T16:42:47.693Z,56.86
2023-10-03T16:45:17.691Z,63.19
2023-10-03T16:47:45.250Z,67.34
2023-10-03T16:50:11.953Z,74.32
2023-10-03T16:52:39.709Z,77.56
2023-10-03T16:55:06.474Z,79.36
2023-10-03T16:57:33.664Z,82.75
2023-10-03T17:00:00.310Z,84.13
2023-10-03T17:02:26.766Z,85.72
2023-10-03T17:04:53.123Z,87.45
2023-10-03T17:07:19.474Z,87.78
2023-10-03T17:09:45.964Z,88.95
2023-10-03T17:12:12.774Z,88.48
2023-10-03T17:14:39.184Z,88.43
2023-10-03T17:17:05.719Z,88.86
2023-10-03T17:19:32.134Z,88.08
2023-10-03T17:21:58.485Z,89.17
2023-10-03T17:24:24.860Z,90.65
2023-10-03T17:26:51.271Z,92.05
2023-10-03T17:29:17.704Z,92.63
2023-10-03T17:31:44.084Z,89.13
2023-10-03T17:34:11.259Z,88.01
2023-10-03T17:36:37.767Z,88.20
2023-10-03T17:39:04.377Z,88.82
2023-10-03T17:41:30.880Z,87.63
2023-10-03T17:43:57.340Z,87.84
2023-10-03T17:46:23.759Z,87.80
2023-10-03T17:48:50.170Z,88.57
2023-10-03T17:51:16.630Z,88.47
2023-10-03T17:53:42.981Z,87.61
2023-10-03T17:56:10.327Z,85.17
2023-10-03T17:58:36.682Z,83.99
2023-10-03T18:01:03.210Z,85.59
2023-10-03T18:03:29.642Z,85.29
2023-10-03T18:05:56.161Z,84.76
2023-10-03T18:08:22.612Z,85.05
2023-10-03T18:10:49.000Z,85.32
2023-10-03T18:13:15.386Z,86.22
2023-10-03T18:15:41.715Z,86.79
2023-10-03T18:18:08.153Z,86.48
2023-10-03T18:20:34.670Z,87.54
2023-10-03T18:23:01.160Z,87.13
2023-10-03T18:25:27.601Z,86.91
2023-10-03T18:27:54.015Z,87.41
2023-10-03T18:30:20.409Z,87.60
2023-10-03T18:32:46.897Z,84.15
2023-10-03T18:35:13.750Z,85.07
2023-10-03T18:37:40.607Z,85.53
2023-10-03T18:40:09.661Z,84.21
2023-10-03T18:42:39.045Z,84.08
2023-10-03T18:45:06.145Z,84.57
2023-10-03T18:47:32.667Z,83.92
2023-10-03T18:49:59.044Z,81.81
2023-10-03T18:52:25.423Z,82.78
2023-10-03T18:54:51.835Z,84.01
2023-10-03T18:57:18.280Z,83.90
2023-10-03T18:59:45.037Z,84.05
2023-10-03T19:02:11.509Z,84.53
2023-10-03T19:04:38.196Z,84.48
2023-10-03T19:07:04.722Z,84.83
2023-10-03T19:09:31.299Z,85.47
2023-10-03T19:11:57.798Z,84.80
2023-10-03T19:14:24.217Z,85.12
2023-10-03T19:16:50.687Z,85.34
2023-10-03T19:19:17.160Z,84.83
2023-10-03T19:21:43.596Z,85.05
2023-10-03T19:24:09.989Z,85.36
2023-10-03T19:26:36.628Z,86.03
2023-10-03T19:29:03.442Z,86.30
2023-10-03T19:31:30.168Z,86.29
2023-10-03T19:33:56.600Z,86.57
2023-10-03T19:36:23.136Z,86.39
2023-10-03T19:38:50.085Z,87.36
2023-10-03T19:41:16.810Z,87.42
2023-10-03T19:43:45.013Z,87.49
2023-10-03T19:46:21.708Z,87.99
2023-10-03T19:48:48.680Z,87.59
2023-10-03T19:51:15.267Z,88.24
2023-10-03T19:53:41.878Z,87.04
2023-10-03T19:56:08.317Z,87.83
2023-10-03T19:58:34.975Z,86.70
2023-10-03T20:01:02.293Z,86.61
2023-10-03T20:03:29.144Z,87.83
2023-10-03T20:05:55.600Z,87.22
2023-10-03T20:08:22.111Z,86.94
2023-10-03T20:10:48.501Z,87.57
2023-10-03T20:13:14.974Z,87.98
2023-10-03T20:15:41.387Z,86.90
2023-10-03T20:18:07.957Z,86.31
2023-10-03T20:20:34.352Z,86.49
2023-10-03T20:23:01.711Z,86.38
2023-10-03T20:25:27.990Z,85.59
2023-10-03T20:27:54.356Z,85.79
2023-10-03T20:30:20.723Z,85.51
2023-10-03T20:32:47.226Z,85.29
2023-10-03T20:35:13.752Z,85.43
2023-10-03T20:37:40.169Z,85.62
2023-10-03T20:40:08.136Z,85.28
2023-10-03T20:42:34.553Z,85.36
2023-10-03T20:45:00.892Z,85.41
2023-10-03T20:47:27.359Z,85.37
2023-10-03T20:49:53.775Z,85.42
2023-10-03T20:52:20.377Z,84.95
2023-10-03T20:54:47.246Z,84.93
2023-10-03T20:57:13.947Z,84.74
2023-10-03T20:59:40.373Z,85.03
2023-10-03T21:02:06.763Z,84.98
2023-10-03T21:04:33.299Z,84.86
2023-10-03T21:06:59.649Z,84.93
2023-10-03T21:09:26.046Z,85.26
2023-10-03T21:11:52.590Z,85.13
2023-10-03T21:14:18.967Z,84.82
2023-10-03T21:16:45.352Z,84.12
2023-10-03T21:19:12.023Z,84.54
2023-10-03T21:21:38.355Z,84.11
2023-10-03T21:24:04.977Z,84.25
2023-10-03T21:26:31.431Z,83.98
2023-10-03T21:28:57.945Z,83.86
2023-10-03T21:31:24.403Z,83.94
2023-10-03T21:33:50.981Z,83.73
2023-10-03T21:36:19.026Z,83.96
2023-10-03T21:38:48.207Z,83.85
2023-10-03T21:41:14.839Z,83.60
2023-10-03T21:43:41.346Z,83.46
2023-10-03T21:46:08.610Z,83.40
2023-10-03T21:48:35.661Z,83.87
2023-10-03T21:51:03.531Z,83.30
2023-10-03T21:53:31.414Z,83.42
2023-10-03T21:55:57.814Z,83.05
2023-10-03T21:58:24.709Z,82.75
2023-10-03T22:00:51.042Z,82.93
2023-10-03T22:03:17.647Z,82.99
2023-10-03T22:05:44.521Z,82.95
2023-10-03T22:08:11.409Z,83.34
2023-10-03T22:10:38.196Z,83.67
2023-10-03T22:13:05.046Z,83.75
2023-10-03T22:15:31.449Z,84.08
2023-10-03T22:17:58.012Z,84.58
2023-10-03T22:20:24.468Z,83.89
2023-10-03T22:22:50.805Z,84.09
2023-10-03T22:25:17.408Z,84.60
2023-10-03T22:27:43.743Z,84.35
2023-10-03T22:30:10.776Z,84.10
2023-10-03T22:32:37.226Z,83.95
2023-10-03T22:35:03.965Z,84.21
2023-10-03T22:37:30.314Z,83.97
2023-10-03T22:39:56.715Z,83.46
2023-10-03T22:42:23.259Z,83.09
2023-10-03T22:44:49.609Z,82.55
2023-10-03T22:47:16.077Z,82.73
2023-10-03T22:49:42.574Z,81.40
2023-10-03T22:52:08.911Z,80.42
2023-10-03T22:54:35.294Z,78.71
2023-10-03T22:57:01.896Z,79.00
2023-10-03T22:59:28.254Z,78.79
2023-10-03T23:01:54.619Z,79.47
2023-10-03T23:04:21.277Z,80.09
2023-10-03T23:06:47.650Z,80.42
2023-10-03T23:09:14.553Z,80.20
2023-10-03T23:11:42.234Z,80.89
2023-10-03T23:14:08.700Z,80.97
2023-10-03T23:16:35.077Z,80.70
2023-10-03T23:19:01.628Z,80.95
2023-10-03T23:21:28.221Z,80.91
2023-10-03T23:23:54.580Z,81.40
2023-10-03T23:26:20.906Z,81.41
2023-10-03T23:28:47.380Z,81.60
2023-10-03T23:31:13.744Z,81.24
2023-10-03T23:33:40.125Z,81.29
2023-10-03T23:36:06.774Z,81.06
2023-10-03T23:38:33.167Z,80.72
2023-10-03T23:40:59.658Z,80.31
2023-10-03T23:43:26.047Z,79.88
2023-10-03T23:45:52.641Z,79.51
2023-10-03T23:48:19.268Z,79.44
2023-10-03T23:50:45.669Z,78.86
2023-10-03T23:53:12.013Z,79.09
2023-10-03T23:55:38.533Z,79.36
2023-10-03T23:58:05.002Z,79.16
